createdAt,value
2023-01-10T00:01:58.077Z,10.40
2023-01-10T00:04:28.801Z,11.77
2023-01-10T00:06:56.144Z,8.80
2023-01-10T00:09:23.103Z,7.63
2023-01-10T00:12:08.554Z,9.57
2023-01-10T00:14:35.470Z,7.83
2023-01-10T00:17:03.419Z,9.33
2023-01-10T00:19:30.884Z,5.40
2023-01-10T00:21:58.389Z,6.70
2023-01-10T00:24:25.203Z,6.00
2023-01-10T00:26:52.358Z,7.00
2023-01-10T00:29:20.499Z,7.07
2023-01-10T00:31:47.712Z,6.87
2023-01-10T00:34:15.155Z,6.23
2023-01-10T00:36:42.223Z,4.73
2023-01-10T00:39:11.357Z,6.10
2023-01-10T00:41:57.250Z,6.07
2023-01-10T00:44:24.113Z,5.80
2023-01-10T00:46:50.873Z,3.90
2023-01-10T00:49:17.958Z,5.37
2023-01-10T00:51:45.396Z,9.90
2023-01-10T00:54:13.645Z,6.90
2023-01-10T00:56:40.804Z,5.50
2023-01-10T00:59:07.834Z,5.53
2023-01-10T01:01:34.706Z,6.40
2023-01-10T01:04:01.611Z,6.43
2023-01-10T01:06:28.504Z,5.23
2023-01-10T01:08:55.255Z,4.47
2023-01-10T01:11:22.169Z,4.83
2023-01-10T01:13:48.965Z,8.33
2023-01-10T01:16:15.882Z,9.23
2023-01-10T01:18:42.682Z,9.97
2023-01-10T01:21:09.524Z,7.87
2023-01-10T01:23:36.691Z,8.80
2023-01-10T01:26:03.648Z,10.53
2023-01-10T01:28:30.871Z,9.83
2023-01-10T01:30:58.051Z,9.90
2023-01-10T01:33:25.142Z,8.93
2023-01-10T01:35:51.935Z,7.70
2023-01-10T01:38:20.044Z,9.13
2023-01-10T01:40:46.913Z,9.40
2023-01-10T01:43:59.222Z,12.37
2023-01-10T01:46:26.037Z,10.00
2023-01-10T01:48:53.378Z,11.37
2023-01-10T01:51:26.851Z,11.40
2023-01-10T01:54:00.124Z,18.33
2023-01-10T01:56:42.997Z,14.87
2023-01-10T01:59:23.860Z,15.00
2023-01-10T02:01:55.076Z,13.87
2023-01-10T02:04:29.632Z,18.17
2023-01-10T02:06:58.720Z,18.77
2023-01-10T02:09:49.862Z,20.13
2023-01-10T02:12:17.217Z,21.77
2023-01-10T02:14:45.370Z,26.63
2023-01-10T02:17:12.708Z,20.87
2023-01-10T02:19:56.412Z,20.43
2023-01-10T02:22:45.426Z,20.90
2023-01-10T02:25:49.231Z,23.50
2023-01-10T02:28:34.784Z,21.30
2023-01-10T02:31:04.588Z,19.37
2023-01-10T02:33:37.989Z,23.63
2023-01-10T02:36:15.061Z,21.23
2023-01-10T02:39:08.061Z,20.77
2023-01-10T02:41:56.089Z,22.90
2023-01-10T02:44:53.878Z,20.83
2023-01-10T02:47:21.044Z,25.77
2023-01-10T02:49:50.140Z,28.40
2023-01-10T02:52:22.875Z,19.60
2023-01-10T02:54:52.993Z,17.40
2023-01-10T02:57:55.394Z,19.90
2023-01-10T03:00:26.342Z,25.50
2023-01-10T03:03:37.974Z,18.33
2023-01-10T03:06:19.191Z,24.27
2023-01-10T03:08:51.691Z,18.53
2023-01-10T03:11:39.419Z,20.47
2023-01-10T03:14:11.708Z,14.20
2023-01-10T03:16:41.696Z,17.00
2023-01-10T03:19:12.698Z,17.87
2023-01-10T03:21:42.814Z,20.07
2023-01-10T03:24:17.566Z,17.00
2023-01-10T03:26:52.580Z,20.17
2023-01-10T03:29:28.835Z,15.93
2023-01-10T03:32:00.711Z,16.60
2023-01-10T03:34:27.772Z,16.33
2023-01-10T03:37:11.909Z,22.30
2023-01-10T03:39:42.115Z,16.47
2023-01-10T03:42:27.064Z,15.93
2023-01-10T03:45:10.321Z,16.47
2023-01-10T03:47:47.908Z,13.33
2023-01-10T03:50:23.409Z,19.90
2023-01-10T03:52:50.431Z,12.00
2023-01-10T03:55:23.607Z,18.17
2023-01-10T03:57:50.647Z,19.33
2023-01-10T04:00:18.272Z,20.30
2023-01-10T04:02:45.801Z,15.70
2023-01-10T04:05:13.337Z,24.40
2023-01-10T04:07:40.566Z,15.23
2023-01-10T04:10:08.619Z,14.30
2023-01-10T04:12:35.447Z,17.27
2023-01-10T04:15:03.156Z,16.50
2023-01-10T04:17:30.008Z,22.17
2023-01-10T04:19:56.872Z,16.90
2023-01-10T04:22:23.659Z,16.83
2023-01-10T04:24:52.029Z,14.10
2023-01-10T04:27:19.302Z,16.00
2023-01-10T04:29:46.817Z,12.50
2023-01-10T04:32:13.626Z,16.57
2023-01-10T04:34:40.446Z,8.60
2023-01-10T04:37:07.418Z,17.30
2023-01-10T04:39:34.169Z,18.37
2023-01-10T04:42:00.895Z,13.03
2023-01-10T04:44:27.682Z,13.67
2023-01-10T04:46:54.557Z,18.03
2023-01-10T04:49:22.730Z,17.50
2023-01-10T04:51:49.485Z,16.03
2023-01-10T04:54:20.433Z,17.53
2023-01-10T04:56:47.488Z,19.13
2023-01-10T04:59:14.736Z,20.67
2023-01-10T05:01:41.764Z,15.93
2023-01-10T05:04:09.353Z,19.37
2023-01-10T05:06:37.236Z,15.43
2023-01-10T05:09:04.141Z,17.90
2023-01-10T05:11:31.287Z,24.37
2023-01-10T05:13:58.114Z,19.03
2023-01-10T05:16:25.576Z,15.37
2023-01-10T05:18:52.481Z,29.73
2023-01-10T05:21:19.366Z,22.90
2023-01-10T05:23:46.418Z,16.10
2023-01-10T05:26:19.678Z,18.87
2023-01-10T05:28:46.949Z,18.20
2023-01-10T05:31:16.418Z,15.33
2023-01-10T05:33:49.072Z,13.50
2023-01-10T05:36:17.000Z,19.30
2023-01-10T05:38:44.012Z,13.30
2023-01-10T05:41:10.907Z,14.80
2023-01-10T05:43:37.752Z,19.47
2023-01-10T05:46:04.836Z,19.17
2023-01-10T05:48:31.841Z,20.63
2023-01-10T05:50:58.605Z,19.20
2023-01-10T05:53:25.507Z,13.33
2023-01-10T05:56:00.708Z,12.73
2023-01-10T05:58:28.608Z,15.00
2023-01-10T06:00:56.754Z,20.20
2023-01-10T06:03:25.155Z,20.13
2023-01-10T06:05:52.576Z,18.27
2023-01-10T06:08:19.372Z,15.63
2023-01-10T06:10:46.209Z,19.27
2023-01-10T06:13:13.360Z,21.80
2023-01-10T06:15:40.190Z,17.50
2023-01-10T06:18:11.805Z,18.33
2023-01-10T06:20:39.234Z,16.50
2023-01-10T06:23:06.066Z,21.90
2023-01-10T06:25:36.956Z,18.27
2023-01-10T06:28:04.115Z,17.27
2023-01-10T06:30:31.089Z,19.00
2023-01-10T06:33:08.659Z,19.60
2023-01-10T06:35:36.288Z,22.20
2023-01-10T06:38:03.343Z,21.43
2023-01-10T06:40:30.382Z,17.57
2023-01-10T06:42:57.223Z,19.97
2023-01-10T06:45:24.055Z,17.17
2023-01-10T06:47:50.846Z,18.80
2023-01-10T06:50:17.722Z,21.37
2023-01-10T06:52:44.619Z,22.40
2023-01-10T06:55:11.803Z,18.90
2023-01-10T06:57:38.839Z,19.50
2023-01-10T07:00:08.821Z,18.57
2023-01-10T07:02:35.806Z,20.10
2023-01-10T07:05:02.778Z,21.17
2023-01-10T07:07:29.585Z,19.33
2023-01-10T07:09:56.340Z,19.17
2023-01-10T07:12:23.211Z,17.93
2023-01-10T07:14:49.980Z,19.20
2023-01-10T07:17:16.721Z,20.20
2023-01-10T07:19:43.521Z,22.63
2023-01-10T07:22:11.375Z,16.40
2023-01-10T07:24:38.278Z,20.83
2023-01-10T07:27:05.195Z,17.13
2023-01-10T07:29:32.019Z,18.73
2023-01-10T07:31:58.806Z,28.23
2023-01-10T07:34:26.430Z,18.40
2023-01-10T07:36:53.285Z,16.53
2023-01-10T07:39:20.034Z,19.60
2023-01-10T07:41:50.358Z,20.00
2023-01-10T07:44:17.282Z,20.80
2023-01-10T07:46:44.129Z,18.97
2023-01-10T07:49:11.004Z,28.40
2023-01-10T07:51:37.960Z,23.30
2023-01-10T07:54:04.780Z,19.90
2023-01-10T07:56:31.730Z,22.70
2023-01-10T07:58:58.784Z,20.07
2023-01-10T08:01:26.136Z,22.63
2023-01-10T08:03:53.070Z,18.67
2023-01-10T08:06:20.036Z,23.77
2023-01-10T08:08:46.901Z,19.00
2023-01-10T08:11:14.146Z,16.50
2023-01-10T08:13:41.290Z,21.60
2023-01-10T08:16:09.048Z,22.33
2023-01-10T08:18:36.197Z,27.57
2023-01-10T08:21:03.255Z,22.63
2023-01-10T08:23:30.275Z,26.07
2023-01-10T08:25:59.537Z,16.60
2023-01-10T08:28:26.497Z,17.30
2023-01-10T08:30:55.762Z,19.10
2023-01-10T08:33:24.008Z,19.07
2023-01-10T08:35:51.825Z,22.57
2023-01-10T08:38:19.206Z,20.00
2023-01-10T08:40:46.107Z,19.43
2023-01-10T08:43:13.666Z,21.63
2023-01-10T08:45:40.864Z,23.40
2023-01-10T08:48:09.746Z,24.03
2023-01-10T08:50:36.646Z,19.33
2023-01-10T08:53:03.845Z,20.60
2023-01-10T08:55:31.328Z,14.97
2023-01-10T08:58:02.587Z,26.47
2023-01-10T09:00:29.767Z,19.33
2023-01-10T09:02:57.377Z,17.90
2023-01-10T09:05:28.247Z,27.07
2023-01-10T09:08:00.758Z,22.20
2023-01-10T09:10:29.216Z,24.13
2023-01-10T09:13:00.196Z,23.63
2023-01-10T09:15:32.597Z,28.00
2023-01-10T09:18:07.734Z,19.40
2023-01-10T09:20:37.083Z,21.83
2023-01-10T09:23:20.095Z,20.13
2023-01-10T09:25:48.356Z,22.47
2023-01-10T09:28:15.818Z,20.67
2023-01-10T09:30:42.988Z,19.23
2023-01-10T09:33:10.666Z,20.03
2023-01-10T09:35:39.926Z,20.43
2023-01-10T09:38:08.271Z,20.20
2023-01-10T09:41:05.814Z,23.13
2023-01-10T09:43:56.082Z,21.73
2023-01-10T09:47:22.843Z,27.50
2023-01-10T09:49:56.046Z,24.63
2023-01-10T09:52:30.467Z,21.00
2023-01-10T09:55:01.040Z,26.60
2023-01-10T09:57:27.852Z,25.97
2023-01-10T09:59:55.259Z,27.20
2023-01-10T10:02:32.816Z,23.90
2023-01-10T10:05:11.735Z,18.37
2023-01-10T10:07:38.848Z,22.60
2023-01-10T10:10:08.098Z,28.67
2023-01-10T10:13:26.905Z,23.07
2023-01-10T10:16:00.079Z,26.37
2023-01-10T10:18:48.847Z,27.03
2023-01-10T10:21:22.637Z,18.70
2023-01-10T10:23:58.541Z,23.60
2023-01-10T10:26:25.423Z,23.90
2023-01-10T10:29:33.859Z,21.77
2023-01-10T10:32:17.270Z,18.37
2023-01-10T10:34:54.014Z,18.07
2023-01-10T10:37:26.538Z,20.80
2023-01-10T10:40:22.507Z,29.27
2023-01-10T10:42:52.721Z,23.27
2023-01-10T10:45:19.649Z,22.97
2023-01-10T10:48:00.132Z,23.50
2023-01-10T10:50:35.310Z,27.27
2023-01-10T10:53:03.838Z,19.50
2023-01-10T10:55:36.861Z,28.63
2023-01-10T10:58:05.240Z,25.67
2023-01-10T11:00:32.352Z,23.13
2023-01-10T11:03:23.351Z,25.20
2023-01-10T11:05:50.896Z,21.73
2023-01-10T11:08:20.568Z,24.80
2023-01-10T11:10:54.797Z,21.77
2023-01-10T11:13:39.007Z,24.63
2023-01-10T11:16:06.753Z,25.47
2023-01-10T11:18:34.031Z,27.20
2023-01-10T11:21:14.481Z,28.23
2023-01-10T11:23:59.685Z,19.70
2023-01-10T11:26:41.162Z,23.80
2023-01-10T11:29:43.850Z,17.13
2023-01-10T11:32:19.819Z,18.10
2023-01-10T11:35:00.210Z,25.07
2023-01-10T11:37:32.302Z,23.07
2023-01-10T11:40:23.227Z,25.60
2023-01-10T11:42:51.354Z,21.13
2023-01-10T11:45:18.321Z,19.27
2023-01-10T11:47:54.837Z,23.27
2023-01-10T11:50:25.991Z,20.97
2023-01-10T11:52:53.619Z,26.73
2023-01-10T11:55:27.737Z,25.50
2023-01-10T11:58:07.343Z,19.20
2023-01-10T12:00:38.244Z,28.83
2023-01-10T12:03:15.778Z,19.93
2023-01-10T12:05:51.116Z,26.33
2023-01-10T12:08:28.554Z,24.53
2023-01-10T12:11:05.564Z,23.70
2023-01-10T12:13:51.292Z,22.13
2023-01-10T12:16:25.468Z,21.67
2023-01-10T12:18:54.892Z,22.50
2023-01-10T12:21:28.251Z,23.40
2023-01-10T12:23:59.659Z,19.93
2023-01-10T12:26:31.978Z,21.80
2023-01-10T12:29:08.604Z,17.20
2023-01-10T12:31:39.231Z,21.93
2023-01-10T12:34:20.597Z,21.63
2023-01-10T12:37:01.401Z,17.10
2023-01-10T12:39:40.619Z,21.47
2023-01-10T12:42:26.248Z,15.97
2023-01-10T12:45:27.251Z,20.90
2023-01-10T12:48:21.398Z,16.23
2023-01-10T12:51:01.896Z,20.63
2023-01-10T12:53:43.991Z,20.80
2023-01-10T12:56:14.996Z,22.77
2023-01-10T12:58:56.358Z,22.30
2023-01-10T13:01:30.724Z,18.83
2023-01-10T13:04:06.209Z,18.13
2023-01-10T13:06:39.248Z,17.67
2023-01-10T13:09:11.465Z,16.07
2023-01-10T13:11:49.763Z,15.93
2023-01-10T13:14:23.247Z,17.53
2023-01-10T13:16:54.565Z,16.90
2023-01-10T13:19:28.490Z,17.60
2023-01-10T13:22:24.962Z,16.70
2023-01-10T13:25:02.819Z,18.87
2023-01-10T13:27:35.743Z,17.73
2023-01-10T13:30:04.375Z,21.23
2023-01-10T13:32:35.598Z,17.83
2023-01-10T13:35:16.093Z,17.10
2023-01-10T13:37:49.517Z,14.07
2023-01-10T13:40:30.256Z,20.53
2023-01-10T13:43:37.818Z,18.80
2023-01-10T13:46:20.007Z,18.87
2023-01-10T13:48:50.461Z,17.03
2023-01-10T13:51:19.027Z,16.07
2023-01-10T13:53:51.848Z,12.73
2023-01-10T13:56:35.524Z,21.90
2023-01-10T13:59:22.803Z,17.23
2023-01-10T14:02:16.147Z,12.80
2023-01-10T14:04:54.740Z,16.83
2023-01-10T14:07:31.361Z,14.73
2023-01-10T14:10:28.953Z,14.63
2023-01-10T14:13:09.709Z,20.00
2023-01-10T14:15:47.918Z,13.67
2023-01-10T14:18:25.484Z,18.83
2023-01-10T14:21:08.204Z,17.83
2023-01-10T14:23:39.941Z,21.60
2023-01-10T14:26:13.868Z,16.73
2023-01-10T14:28:42.229Z,16.90
2023-01-10T14:31:20.342Z,16.07
2023-01-10T14:33:48.391Z,14.07
2023-01-10T14:36:18.661Z,16.60
2023-01-10T14:38:46.844Z,14.20
2023-01-10T14:41:18.549Z,22.77
2023-01-10T14:43:57.898Z,12.47
2023-01-10T14:46:52.935Z,11.27
2023-01-10T14:49:22.659Z,13.70
2023-01-10T14:51:50.846Z,15.90
2023-01-10T14:54:24.735Z,15.63
2023-01-10T14:56:53.494Z,15.77
2023-01-10T14:59:36.103Z,14.37
2023-01-10T15:02:27.914Z,15.40
2023-01-10T15:05:12.816Z,12.13
2023-01-10T15:07:39.898Z,14.33
2023-01-10T15:10:47.285Z,12.93
2023-01-10T15:13:21.155Z,13.33
2023-01-10T15:15:50.182Z,14.03
2023-01-10T15:18:36.341Z,13.63
2023-01-10T15:21:04.900Z,12.07
2023-01-10T15:23:40.099Z,12.47
2023-01-10T15:26:16.373Z,12.07
2023-01-10T15:28:49.155Z,14.23
2023-01-10T15:31:17.172Z,14.87
2023-01-10T15:33:46.865Z,11.90
2023-01-10T15:36:20.694Z,12.67
2023-01-10T15:38:48.257Z,16.07
2023-01-10T15:41:21.710Z,10.37
2023-01-10T15:43:50.236Z,14.83
2023-01-10T15:46:23.103Z,13.30
2023-01-10T15:49:02.966Z,14.30
2023-01-10T15:51:34.524Z,13.40
2023-01-10T15:54:27.579Z,11.73
2023-01-10T15:57:04.442Z,14.57
2023-01-10T15:59:39.826Z,14.50
2023-01-10T16:02:15.652Z,13.13
2023-01-10T16:04:44.936Z,11.97
2023-01-10T16:07:27.798Z,16.00
2023-01-10T16:10:08.087Z,13.03
2023-01-10T16:12:58.423Z,11.67
2023-01-10T16:15:27.862Z,14.17
2023-01-10T16:17:54.794Z,16.20
2023-01-10T16:20:27.319Z,12.37
2023-01-10T16:22:55.775Z,12.63
2023-01-10T16:25:38.997Z,18.77
2023-01-10T16:28:06.376Z,12.20
2023-01-10T16:30:34.906Z,12.83
2023-01-10T16:33:26.313Z,15.17
2023-01-10T16:35:55.417Z,10.73
2023-01-10T16:38:23.703Z,10.77
2023-01-10T16:41:00.170Z,13.73
2023-01-10T16:43:29.173Z,15.40
2023-01-10T16:46:00.727Z,10.47
2023-01-10T16:48:29.803Z,10.50
2023-01-10T16:51:06.345Z,7.87
2023-01-10T16:53:33.174Z,15.77
2023-01-10T16:56:00.346Z,9.97
2023-01-10T16:58:27.273Z,12.63
2023-01-10T17:00:54.243Z,9.80
2023-01-10T17:03:23.644Z,7.07
2023-01-10T17:05:51.173Z,9.93
2023-01-10T17:08:21.263Z,14.97
2023-01-10T17:10:52.369Z,13.37
2023-01-10T17:13:25.154Z,7.77
2023-01-10T17:15:51.986Z,11.90
2023-01-10T17:18:18.725Z,10.53
2023-01-10T17:20:46.016Z,13.23
2023-01-10T17:23:15.073Z,8.40
2023-01-10T17:25:42.352Z,7.23
2023-01-10T17:28:12.088Z,9.40
2023-01-10T17:30:42.983Z,11.53
2023-01-10T17:33:13.593Z,8.27
2023-01-10T17:35:45.049Z,10.13
2023-01-10T17:38:14.938Z,12.37
2023-01-10T17:40:46.607Z,11.43
2023-01-10T17:43:15.491Z,11.73
2023-01-10T17:45:47.812Z,10.30
2023-01-10T17:48:16.266Z,12.77
2023-01-10T17:50:44.542Z,9.43
2023-01-10T17:53:11.496Z,9.83
2023-01-10T17:55:47.605Z,8.70
2023-01-10T17:58:16.355Z,12.13
2023-01-10T18:00:43.348Z,14.97
2023-01-10T18:03:10.898Z,11.90
2023-01-10T18:05:40.183Z,9.97
2023-01-10T18:08:08.136Z,10.73
2023-01-10T18:10:35.071Z,13.00
2023-01-10T18:13:03.575Z,10.93
2023-01-10T18:15:30.805Z,10.10
2023-01-10T18:17:58.085Z,10.53
2023-01-10T18:20:25.083Z,15.67
2023-01-10T18:23:10.652Z,11.87
2023-01-10T18:25:37.520Z,8.77
2023-01-10T18:28:04.465Z,13.33
2023-01-10T18:30:31.313Z,12.67
2023-01-10T18:32:58.165Z,12.20
2023-01-10T18:35:25.754Z,12.67
2023-01-10T18:37:52.950Z,11.70
2023-01-10T18:40:20.248Z,14.33
2023-01-10T18:42:51.398Z,12.53
2023-01-10T18:45:18.408Z,13.10
2023-01-10T18:47:45.205Z,15.40
2023-01-10T18:50:12.267Z,14.47
2023-01-10T18:52:42.131Z,14.23
2023-01-10T18:55:09.338Z,10.23
2023-01-10T18:57:36.308Z,10.20
2023-01-10T19:00:04.801Z,13.97
2023-01-10T19:02:32.145Z,10.37
2023-01-10T19:04:59.081Z,13.63
2023-01-10T19:07:26.273Z,12.60
2023-01-10T19:09:53.137Z,14.10
2023-01-10T19:12:22.390Z,11.90
2023-01-10T19:14:49.467Z,14.30
2023-01-10T19:17:18.386Z,15.03
2023-01-10T19:19:45.769Z,11.27
2023-01-10T19:22:12.781Z,9.33
2023-01-10T19:24:39.874Z,9.17
2023-01-10T19:27:06.779Z,13.37
2023-01-10T19:29:35.620Z,10.40
2023-01-10T19:32:04.162Z,13.93
2023-01-10T19:34:31.082Z,10.57
2023-01-10T19:36:58.078Z,13.57
2023-01-10T19:39:25.104Z,10.23
2023-01-10T19:41:52.065Z,11.63
2023-01-10T19:44:20.948Z,9.17
2023-01-10T19:46:49.075Z,14.33
2023-01-10T19:49:19.775Z,15.70
2023-01-10T19:51:53.489Z,10.67
2023-01-10T19:54:20.545Z,13.73
2023-01-10T19:56:47.588Z,12.87
2023-01-10T19:59:14.933Z,11.03
2023-01-10T20:01:42.375Z,13.37
2023-01-10T20:04:10.021Z,13.00
2023-01-10T20:06:39.696Z,9.37
2023-01-10T20:09:08.185Z,14.03
2023-01-10T20:11:40.445Z,11.57
2023-01-10T20:14:11.909Z,12.80
2023-01-10T20:16:38.841Z,9.73
2023-01-10T20:19:09.195Z,13.43
2023-01-10T20:21:37.241Z,12.33
2023-01-10T20:24:11.790Z,13.20
2023-01-10T20:26:39.233Z,15.63
2023-01-10T20:29:06.361Z,9.80
2023-01-10T20:31:33.405Z,11.47
2023-01-10T20:34:00.642Z,12.43
2023-01-10T20:36:28.423Z,8.10
2023-01-10T20:38:55.593Z,12.00
2023-01-10T20:41:24.997Z,9.30
2023-01-10T20:43:53.436Z,9.60
2023-01-10T20:46:25.537Z,10.13
2023-01-10T20:48:53.591Z,9.47
2023-01-10T20:51:23.146Z,7.57
2023-01-10T20:53:51.035Z,8.10
2023-01-10T20:56:20.926Z,9.80
2023-01-10T20:58:48.511Z,8.70
2023-01-10T21:01:28.852Z,12.53
2023-01-10T21:04:00.444Z,11.03
2023-01-10T21:06:27.498Z,6.70
2023-01-10T21:08:55.067Z,7.87
2023-01-10T21:11:22.038Z,6.27
2023-01-10T21:13:49.404Z,4.83
2023-01-10T21:16:19.442Z,6.73
2023-01-10T21:18:47.162Z,3.83
2023-01-10T21:21:22.819Z,7.13
2023-01-10T21:23:49.915Z,4.27
2023-01-10T21:26:17.229Z,4.40
2023-01-10T21:28:49.478Z,4.10
2023-01-10T21:31:19.510Z,3.40
2023-01-10T21:33:46.508Z,2.80
2023-01-10T21:36:13.983Z,3.27
2023-01-10T21:38:41.819Z,2.27
2023-01-10T21:41:14.656Z,1.20
2023-01-10T21:43:46.180Z,1.60
2023-01-10T21:46:15.429Z,7.10
2023-01-10T21:48:45.182Z,1.80
2023-01-10T21:51:12.154Z,1.60
2023-01-10T21:53:41.476Z,1.90
2023-01-10T21:56:08.711Z,2.23
2023-01-10T21:58:35.652Z,1.80
2023-01-10T22:01:02.701Z,3.43
2023-01-10T22:03:31.370Z,3.13
2023-01-10T22:06:00.800Z,1.13
2023-01-10T22:08:28.312Z,1.63
2023-01-10T22:10:55.155Z,1.83
2023-01-10T22:13:24.090Z,3.03
2023-01-10T22:15:58.415Z,2.07
2023-01-10T22:18:25.912Z,3.67
2023-01-10T22:20:55.826Z,2.23
2023-01-10T22:23:24.000Z,3.43
2023-01-10T22:26:04.565Z,1.90
2023-01-10T22:28:32.755Z,3.13
2023-01-10T22:31:00.191Z,1.47
2023-01-10T22:33:36.227Z,3.87
2023-01-10T22:36:08.512Z,1.63
2023-01-10T22:38:35.315Z,3.00
2023-01-10T22:41:20.049Z,2.40
2023-01-10T22:43:47.433Z,3.13
2023-01-10T22:46:15.843Z,2.40
2023-01-10T22:48:43.654Z,2.90
2023-01-10T22:51:10.583Z,2.20
2023-01-10T22:53:37.396Z,2.13
2023-01-10T22:56:06.703Z,3.17
2023-01-10T22:58:34.087Z,2.83
2023-01-10T23:01:04.346Z,3.70
2023-01-10T23:03:31.140Z,1.67
2023-01-10T23:05:58.899Z,3.60
2023-01-10T23:08:29.058Z,3.43
2023-01-10T23:10:55.911Z,2.50
2023-01-10T23:13:23.861Z,1.27
2023-01-10T23:15:58.252Z,1.53
2023-01-10T23:18:25.866Z,1.67
2023-01-10T23:20:52.896Z,1.57
2023-01-10T23:23:19.875Z,2.73
2023-01-10T23:26:01.346Z,2.57
2023-01-10T23:28:44.946Z,2.03
2023-01-10T23:31:12.763Z,2.87
2023-01-10T23:33:39.697Z,1.70
2023-01-10T23:36:07.191Z,1.37
2023-01-10T23:38:33.978Z,3.00
2023-01-10T23:41:00.942Z,1.07
2023-01-10T23:43:27.896Z,2.20
2023-01-10T23:45:54.806Z,1.93
2023-01-10T23:48:21.657Z,1.20
2023-01-10T23:50:50.127Z,1.40
2023-01-10T23:53:17.781Z,1.93
2023-01-10T23:55:44.742Z,0.93
2023-01-10T23:58:11.784Z,3.17
